sensor_id;sensor_type;location;lat;lon;timestamp;temperature;humidity
3770;DHT22;1900;48.890;9.190;2022-12-11T00:00:50;4.90;58.60
3770;DHT22;1900;48.890;9.190;2022-12-11T00:03:17;4.90;58.70
3770;DHT22;1900;48.890;9.190;2022-12-11T00:05:43;4.90;58.80
3770;DHT22;1900;48.890;9.190;2022-12-11T00:08:10;4.90;58.90
3770;DHT22;1900;48.890;9.190;2022-12-11T00:10:36;4.90;58.90
3770;DHT22;1900;48.890;9.190;2022-12-11T00:13:02;4.90;59.50
3770;DHT22;1900;48.890;9.190;2022-12-11T00:15:28;4.90;58.90
3770;DHT22;1900;48.890;9.190;2022-12-11T00:17:53;5.00;59.00
3770;DHT22;1900;48.890;9.190;2022-12-11T00:20:19;5.00;59.00
3770;DHT22;1900;48.890;9.190;2022-12-11T00:22:45;5.00;59.10
3770;DHT22;1900;48.890;9.190;2022-12-11T00:25:11;5.00;59.10
3770;DHT22;1900;48.890;9.190;2022-12-11T00:27:36;5.00;59.10
3770;DHT22;1900;48.890;9.190;2022-12-11T00:30:03;5.00;59.10
3770;DHT22;1900;48.890;9.190;2022-12-11T00:32:29;5.00;59.10
3770;DHT22;1900;48.890;9.190;2022-12-11T00:34:56;5.00;58.90
3770;DHT22;1900;48.890;9.190;2022-12-11T00:37:22;5.00;58.90
3770;DHT22;1900;48.890;9.190;2022-12-11T00:39:48;5.00;58.90
3770;DHT22;1900;48.890;9.190;2022-12-11T00:42:13;5.00;58.90
3770;DHT22;1900;48.890;9.190;2022-12-11T00:44:39;5.00;58.90
3770;DHT22;1900;48.890;9.190;2022-12-11T00:47:06;5.00;58.90
3770;DHT22;1900;48.890;9.190;2022-12-11T00:49:32;5.00;58.90
3770;DHT22;1900;48.890;9.190;2022-12-11T00:52:01;5.00;58.90
3770;DHT22;1900;48.890;9.190;2022-12-11T00:54:27;5.10;59.00
3770;DHT22;1900;48.890;9.190;2022-12-11T00:56:54;5.00;59.10
3770;DHT22;1900;48.890;9.190;2022-12-11T00:59:20;5.10;59.10
3770;DHT22;1900;48.890;9.190;2022-12-11T01:01:45;5.10;59.10
3770;DHT22;1900;48.890;9.190;2022-12-11T01:04:11;5.10;59.10
3770;DHT22;1900;48.890;9.190;2022-12-11T01:06:38;5.10;59.20
3770;DHT22;1900;48.890;9.190;2022-12-11T01:09:03;5.20;59.30
3770;DHT22;1900;48.890;9.190;2022-12-11T01:11:48;5.20;59.30
3770;DHT22;1900;48.890;9.190;2022-12-11T01:14:14;5.20;59.30
3770;DHT22;1900;48.890;9.190;2022-12-11T01:16:40;5.20;59.30
3770;DHT22;1900;48.890;9.190;2022-12-11T01:19:05;5.20;59.30
3770;DHT22;1900;48.890;9.190;2022-12-11T01:21:31;5.20;59.30
3770;DHT22;1900;48.890;9.190;2022-12-11T01:23:57;5.20;59.10
3770;DHT22;1900;48.890;9.190;2022-12-11T01:26:23;5.20;59.00
3770;DHT22;1900;48.890;9.190;2022-12-11T01:28:49;5.20;59.10
3770;DHT22;1900;48.890;9.190;2022-12-11T01:31:16;5.20;59.10
3770;DHT22;1900;48.890;9.190;2022-12-11T01:33:42;5.20;59.10
3770;DHT22;1900;48.890;9.190;2022-12-11T01:36:17;5.20;59.00
3770;DHT22;1900;48.890;9.190;2022-12-11T01:38:44;5.20;58.90
3770;DHT22;1900;48.890;9.190;2022-12-11T01:41:10;5.20;58.90
3770;DHT22;1900;48.890;9.190;2022-12-11T01:46:34;5.20;59.00
3770;DHT22;1900;48.890;9.190;2022-12-11T01:49:03;5.20;59.00
3770;DHT22;1900;48.890;9.190;2022-12-11T01:51:32;5.20;59.00
3770;DHT22;1900;48.890;9.190;2022-12-11T01:54:03;5.20;59.00
3770;DHT22;1900;48.890;9.190;2022-12-11T01:56:31;5.20;59.10
3770;DHT22;1900;48.890;9.190;2022-12-11T01:59:02;5.20;59.10
3770;DHT22;1900;48.890;9.190;2022-12-11T02:03:58;5.20;59.10
3770;DHT22;1900;48.890;9.190;2022-12-11T02:06:39;5.20;59.10
3770;DHT22;1900;48.890;9.190;2022-12-11T02:09:09;5.20;59.10
3770;DHT22;1900;48.890;9.190;2022-12-11T02:31:03;5.30;59.30
3770;DHT22;1900;48.890;9.190;2022-12-11T02:33:43;5.30;59.30
3770;DHT22;1900;48.890;9.190;2022-12-11T02:36:11;5.30;59.30
3770;DHT22;1900;48.890;9.190;2022-12-11T02:38:40;5.30;59.20
3770;DHT22;1900;48.890;9.190;2022-12-11T02:41:09;5.30;59.10
3770;DHT22;1900;48.890;9.190;2022-12-11T02:43:37;5.30;59.10
3770;DHT22;1900;48.890;9.190;2022-12-11T02:46:05;5.30;59.10
3770;DHT22;1900;48.890;9.190;2022-12-11T02:48:32;5.30;59.10
3770;DHT22;1900;48.890;9.190;2022-12-11T02:51:00;5.30;59.00
3770;DHT22;1900;48.890;9.190;2022-12-11T02:53:30;5.30;59.00
3770;DHT22;1900;48.890;9.190;2022-12-11T02:56:10;5.30;59.00
3770;DHT22;1900;48.890;9.190;2022-12-11T02:58:42;5.20;59.00
3770;DHT22;1900;48.890;9.190;2022-12-11T03:01:10;5.30;59.20
3770;DHT22;1900;48.890;9.190;2022-12-11T03:03:36;5.20;59.20
3770;DHT22;1900;48.890;9.190;2022-12-11T03:06:01;5.30;59.30
3770;DHT22;1900;48.890;9.190;2022-12-11T03:08:28;5.30;59.20
3770;DHT22;1900;48.890;9.190;2022-12-11T03:10:54;5.30;59.30
3770;DHT22;1900;48.890;9.190;2022-12-11T03:13:20;5.30;59.20
3770;DHT22;1900;48.890;9.190;2022-12-11T03:16:13;5.30;59.10
3770;DHT22;1900;48.890;9.190;2022-12-11T03:21:37;5.30;59.10
3770;DHT22;1900;48.890;9.190;2022-12-11T03:24:09;5.30;59.20
3770;DHT22;1900;48.890;9.190;2022-12-11T03:26:41;5.30;59.20
3770;DHT22;1900;48.890;9.190;2022-12-11T03:32:20;5.30;59.20
3770;DHT22;1900;48.890;9.190;2022-12-11T03:34:58;5.30;59.20
3770;DHT22;1900;48.890;9.190;2022-12-11T03:37:27;5.30;59.20
3770;DHT22;1900;48.890;9.190;2022-12-11T03:39:58;5.30;59.30
3770;DHT22;1900;48.890;9.190;2022-12-11T03:42:26;5.30;59.30
3770;DHT22;1900;48.890;9.190;2022-12-11T03:44:54;5.30;59.20
3770;DHT22;1900;48.890;9.190;2022-12-11T03:47:23;5.30;59.10
3770;DHT22;1900;48.890;9.190;2022-12-11T03:49:50;5.30;59.10
3770;DHT22;1900;48.890;9.190;2022-12-11T03:52:17;5.30;59.10
3770;DHT22;1900;48.890;9.190;2022-12-11T03:54:45;5.40;59.30
3770;DHT22;1900;48.890;9.190;2022-12-11T03:57:15;5.30;59.20
3770;DHT22;1900;48.890;9.190;2022-12-11T03:59:42;5.30;59.20
3770;DHT22;1900;48.890;9.190;2022-12-11T04:02:08;5.30;59.10
3770;DHT22;1900;48.890;9.190;2022-12-11T04:04:39;5.40;59.30
3770;DHT22;1900;48.890;9.190;2022-12-11T04:07:06;5.40;59.30
3770;DHT22;1900;48.890;9.190;2022-12-11T04:09:32;5.30;59.30
3770;DHT22;1900;48.890;9.190;2022-12-11T04:11:58;5.40;59.30
3770;DHT22;1900;48.890;9.190;2022-12-11T04:14:24;5.40;59.30
3770;DHT22;1900;48.890;9.190;2022-12-11T04:17:09;5.40;59.20
3770;DHT22;1900;48.890;9.190;2022-12-11T04:19:35;5.30;59.10
3770;DHT22;1900;48.890;9.190;2022-12-11T04:22:19;5.30;59.10
3770;DHT22;1900;48.890;9.190;2022-12-11T04:25:06;5.40;59.20
3770;DHT22;1900;48.890;9.190;2022-12-11T04:27:32;5.30;59.10
3770;DHT22;1900;48.890;9.190;2022-12-11T04:30:21;5.30;59.00
3770;DHT22;1900;48.890;9.190;2022-12-11T04:32:48;5.30;58.90
3770;DHT22;1900;48.890;9.190;2022-12-11T04:35:14;5.30;58.90
3770;DHT22;1900;48.890;9.190;2022-12-11T04:37:40;5.20;58.90
3770;DHT22;1900;48.890;9.190;2022-12-11T04:40:10;5.20;58.90
3770;DHT22;1900;48.890;9.190;2022-12-11T04:42:36;5.20;58.90
3770;DHT22;1900;48.890;9.190;2022-12-11T04:45:03;5.20;59.00
3770;DHT22;1900;48.890;9.190;2022-12-11T04:47:29;5.20;59.00
3770;DHT22;1900;48.890;9.190;2022-12-11T04:49:55;5.20;59.10
3770;DHT22;1900;48.890;9.190;2022-12-11T04:52:20;5.20;59.10
3770;DHT22;1900;48.890;9.190;2022-12-11T04:54:47;5.20;59.10
3770;DHT22;1900;48.890;9.190;2022-12-11T04:57:13;5.20;58.90
3770;DHT22;1900;48.890;9.190;2022-12-11T04:59:39;5.10;58.60
3770;DHT22;1900;48.890;9.190;2022-12-11T05:02:04;5.10;58.50
3770;DHT22;1900;48.890;9.190;2022-12-11T05:04:34;5.10;58.50
3770;DHT22;1900;48.890;9.190;2022-12-11T05:07:00;5.10;58.60
3770;DHT22;1900;48.890;9.190;2022-12-11T05:09:26;5.10;58.70
3770;DHT22;1900;48.890;9.190;2022-12-11T05:11:52;5.00;58.80
3770;DHT22;1900;48.890;9.190;2022-12-11T05:14:19;5.00;58.80
3770;DHT22;1900;48.890;9.190;2022-12-11T05:16:45;5.10;59.00
3770;DHT22;1900;48.890;9.190;2022-12-11T05:19:11;5.10;59.00
3770;DHT22;1900;48.890;9.190;2022-12-11T05:21:39;5.10;59.00
3770;DHT22;1900;48.890;9.190;2022-12-11T05:24:05;5.10;59.00
3770;DHT22;1900;48.890;9.190;2022-12-11T05:26:31;5.10;58.90
3770;DHT22;1900;48.890;9.190;2022-12-11T05:28:56;5.10;58.90
3770;DHT22;1900;48.890;9.190;2022-12-11T05:31:24;5.10;58.90
3770;DHT22;1900;48.890;9.190;2022-12-11T05:33:51;5.10;58.90
3770;DHT22;1900;48.890;9.190;2022-12-11T05:38:44;5.00;58.80
3770;DHT22;1900;48.890;9.190;2022-12-11T05:41:13;5.10;58.90
3770;DHT22;1900;48.890;9.190;2022-12-11T05:43:39;5.00;58.80
3770;DHT22;1900;48.890;9.190;2022-12-11T05:48:42;5.00;58.80
3770;DHT22;1900;48.890;9.190;2022-12-11T05:51:09;5.00;58.70
3770;DHT22;1900;48.890;9.190;2022-12-11T05:53:39;5.00;58.80
3770;DHT22;1900;48.890;9.190;2022-12-11T05:56:14;5.00;58.80
3770;DHT22;1900;48.890;9.190;2022-12-11T05:58:41;5.00;58.80
3770;DHT22;1900;48.890;9.190;2022-12-11T06:01:10;5.00;58.80
3770;DHT22;1900;48.890;9.190;2022-12-11T06:03:36;5.00;58.80
3770;DHT22;1900;48.890;9.190;2022-12-11T06:06:02;5.00;58.80
3770;DHT22;1900;48.890;9.190;2022-12-11T06:08:29;5.00;58.80
3770;DHT22;1900;48.890;9.190;2022-12-11T06:10:54;5.00;58.70
3770;DHT22;1900;48.890;9.190;2022-12-11T06:13:20;5.00;58.70
3770;DHT22;1900;48.890;9.190;2022-12-11T06:15:46;4.90;58.60
3770;DHT22;1900;48.890;9.190;2022-12-11T06:18:12;4.90;58.60
3770;DHT22;1900;48.890;9.190;2022-12-11T06:20:38;4.90;58.50
3770;DHT22;1900;48.890;9.190;2022-12-11T06:23:04;4.90;58.50
3770;DHT22;1900;48.890;9.190;2022-12-11T06:25:30;4.90;58.50
3770;DHT22;1900;48.890;9.190;2022-12-11T06:27:55;4.80;58.50
3770;DHT22;1900;48.890;9.190;2022-12-11T06:30:21;4.80;58.50
3770;DHT22;1900;48.890;9.190;2022-12-11T06:32:47;4.80;58.50
3770;DHT22;1900;48.890;9.190;2022-12-11T06:35:13;4.80;58.50
3770;DHT22;1900;48.890;9.190;2022-12-11T06:37:39;4.80;58.40
3770;DHT22;1900;48.890;9.190;2022-12-11T06:40:06;4.80;58.50
3770;DHT22;1900;48.890;9.190;2022-12-11T06:42:33;4.80;58.50
3770;DHT22;1900;48.890;9.190;2022-12-11T06:44:58;4.80;58.50
3770;DHT22;1900;48.890;9.190;2022-12-11T06:47:28;4.80;58.50
3770;DHT22;1900;48.890;9.190;2022-12-11T06:49:55;4.70;58.50
3770;DHT22;1900;48.890;9.190;2022-12-11T06:52:22;4.70;58.50
3770;DHT22;1900;48.890;9.190;2022-12-11T06:54:48;4.70;58.50
3770;DHT22;1900;48.890;9.190;2022-12-11T06:57:14;4.70;58.50
3770;DHT22;1900;48.890;9.190;2022-12-11T06:59:40;4.70;58.50
3770;DHT22;1900;48.890;9.190;2022-12-11T07:02:06;4.70;58.40
3770;DHT22;1900;48.890;9.190;2022-12-11T07:04:32;4.70;58.20
3770;DHT22;1900;48.890;9.190;2022-12-11T07:06:59;4.70;58.20
3770;DHT22;1900;48.890;9.190;2022-12-11T07:09:24;4.60;58.20
3770;DHT22;1900;48.890;9.190;2022-12-11T07:11:51;4.60;58.30
3770;DHT22;1900;48.890;9.190;2022-12-11T07:14:17;4.60;58.40
3770;DHT22;1900;48.890;9.190;2022-12-11T07:16:42;4.70;58.60
3770;DHT22;1900;48.890;9.190;2022-12-11T07:19:08;4.70;58.60
3770;DHT22;1900;48.890;9.190;2022-12-11T07:21:34;4.70;58.60
3770;DHT22;1900;48.890;9.190;2022-12-11T07:23:59;4.70;58.60
3770;DHT22;1900;48.890;9.190;2022-12-11T07:26:26;4.70;58.70
3770;DHT22;1900;48.890;9.190;2022-12-11T07:28:55;4.70;58.70
3770;DHT22;1900;48.890;9.190;2022-12-11T07:31:22;4.70;58.60
3770;DHT22;1900;48.890;9.190;2022-12-11T07:34:01;4.70;58.60
3770;DHT22;1900;48.890;9.190;2022-12-11T07:36:28;4.70;58.60
3770;DHT22;1900;48.890;9.190;2022-12-11T07:38:54;4.70;58.50
3770;DHT22;1900;48.890;9.190;2022-12-11T07:41:21;4.70;58.60
3770;DHT22;1900;48.890;9.190;2022-12-11T07:43:52;4.70;58.70
3770;DHT22;1900;48.890;9.190;2022-12-11T07:46:24;4.80;58.80
3770;DHT22;1900;48.890;9.190;2022-12-11T07:48:50;4.80;58.80
3770;DHT22;1900;48.890;9.190;2022-12-11T07:53:46;4.80;58.90
3770;DHT22;1900;48.890;9.190;2022-12-11T07:56:14;4.80;58.90
3770;DHT22;1900;48.890;9.190;2022-12-11T07:58:41;4.80;58.80
3770;DHT22;1900;48.890;9.190;2022-12-11T08:01:17;4.80;58.80
3770;DHT22;1900;48.890;9.190;2022-12-11T08:03:43;4.80;58.70
3770;DHT22;1900;48.890;9.190;2022-12-11T08:06:09;4.80;58.60
3770;DHT22;1900;48.890;9.190;2022-12-11T08:08:35;4.80;58.50
3770;DHT22;1900;48.890;9.190;2022-12-11T08:11:06;4.80;58.50
3770;DHT22;1900;48.890;9.190;2022-12-11T08:13:32;4.80;58.70
3770;DHT22;1900;48.890;9.190;2022-12-11T08:15:58;4.80;58.80
3770;DHT22;1900;48.890;9.190;2022-12-11T08:18:27;4.80;58.80
3770;DHT22;1900;48.890;9.190;2022-12-11T08:20:53;4.80;58.60
3770;DHT22;1900;48.890;9.190;2022-12-11T08:23:18;4.80;58.60
3770;DHT22;1900;48.890;9.190;2022-12-11T08:25:44;4.80;58.70
3770;DHT22;1900;48.890;9.190;2022-12-11T08:28:10;4.80;58.60
3770;DHT22;1900;48.890;9.190;2022-12-11T08:30:37;4.80;58.70
3770;DHT22;1900;48.890;9.190;2022-12-11T08:33:04;4.80;58.70
3770;DHT22;1900;48.890;9.190;2022-12-11T08:35:30;4.80;58.70
3770;DHT22;1900;48.890;9.190;2022-12-11T08:37:56;4.80;58.80
3770;DHT22;1900;48.890;9.190;2022-12-11T08:40:21;4.90;59.00
3770;DHT22;1900;48.890;9.190;2022-12-11T08:42:47;4.90;59.00
3770;DHT22;1900;48.890;9.190;2022-12-11T08:45:13;4.90;59.10
3770;DHT22;1900;48.890;9.190;2022-12-11T08:47:38;4.90;59.60
3770;DHT22;1900;48.890;9.190;2022-12-11T08:50:04;4.90;59.00
3770;DHT22;1900;48.890;9.190;2022-12-11T08:52:30;4.90;59.00
3770;DHT22;1900;48.890;9.190;2022-12-11T08:54:58;5.00;59.10
3770;DHT22;1900;48.890;9.190;2022-12-11T08:57:23;5.00;59.20
3770;DHT22;1900;48.890;9.190;2022-12-11T08:59:49;5.00;59.20
3770;DHT22;1900;48.890;9.190;2022-12-11T09:02:15;5.00;59.20
3770;DHT22;1900;48.890;9.190;2022-12-11T09:04:40;5.10;59.40
3770;DHT22;1900;48.890;9.190;2022-12-11T09:07:06;5.10;59.40
3770;DHT22;1900;48.890;9.190;2022-12-11T09:09:32;5.10;59.40
3770;DHT22;1900;48.890;9.190;2022-12-11T09:11:58;5.10;59.40
3770;DHT22;1900;48.890;9.190;2022-12-11T09:14:26;5.10;59.40
3770;DHT22;1900;48.890;9.190;2022-12-11T09:16:52;5.20;59.40
3770;DHT22;1900;48.890;9.190;2022-12-11T09:19:17;5.20;59.40
3770;DHT22;1900;48.890;9.190;2022-12-11T09:21:43;5.20;59.30
3770;DHT22;1900;48.890;9.190;2022-12-11T09:24:11;5.20;59.00
3770;DHT22;1900;48.890;9.190;2022-12-11T09:26:37;5.20;59.10
3770;DHT22;1900;48.890;9.190;2022-12-11T09:29:04;5.20;59.20
3770;DHT22;1900;48.890;9.190;2022-12-11T09:31:33;5.20;59.10
3770;DHT22;1900;48.890;9.190;2022-12-11T09:34:02;5.10;58.70
3770;DHT22;1900;48.890;9.190;2022-12-11T09:36:28;5.10;58.50
3770;DHT22;1900;48.890;9.190;2022-12-11T09:38:54;5.10;58.40
3770;DHT22;1900;48.890;9.190;2022-12-11T09:46:24;5.00;58.70
3770;DHT22;1900;48.890;9.190;2022-12-11T09:48:50;5.00;58.80
3770;DHT22;1900;48.890;9.190;2022-12-11T09:51:29;4.90;58.70
3770;DHT22;1900;48.890;9.190;2022-12-11T09:53:58;5.00;58.90
3770;DHT22;1900;48.890;9.190;2022-12-11T09:57:15;5.00;59.10
3770;DHT22;1900;48.890;9.190;2022-12-11T10:05:24;5.10;59.40
3770;DHT22;1900;48.890;9.190;2022-12-11T10:07:55;5.10;59.50
3770;DHT22;1900;48.890;9.190;2022-12-11T10:10:42;5.10;59.50
3770;DHT22;1900;48.890;9.190;2022-12-11T10:13:36;5.20;59.50
3770;DHT22;1900;48.890;9.190;2022-12-11T10:19:03;5.20;59.60
3770;DHT22;1900;48.890;9.190;2022-12-11T10:21:35;5.30;59.60
3770;DHT22;1900;48.890;9.190;2022-12-11T10:24:04;5.30;59.50
3770;DHT22;1900;48.890;9.190;2022-12-11T10:26:38;5.30;59.50
3770;DHT22;1900;48.890;9.190;2022-12-11T10:29:09;5.30;60.10
3770;DHT22;1900;48.890;9.190;2022-12-11T10:31:49;5.30;59.50
3770;DHT22;1900;48.890;9.190;2022-12-11T10:34:33;5.30;59.50
3770;DHT22;1900;48.890;9.190;2022-12-11T10:36:59;5.40;59.60
3770;DHT22;1900;48.890;9.190;2022-12-11T10:39:25;5.40;59.70
3770;DHT22;1900;48.890;9.190;2022-12-11T10:41:53;5.50;59.80
3770;DHT22;1900;48.890;9.190;2022-12-11T10:49:32;5.50;59.70
3770;DHT22;1900;48.890;9.190;2022-12-11T10:51:58;5.50;59.60
3770;DHT22;1900;48.890;9.190;2022-12-11T10:54:40;5.50;59.70
3770;DHT22;1900;48.890;9.190;2022-12-11T10:57:09;5.60;59.70
3770;DHT22;1900;48.890;9.190;2022-12-11T11:02:28;5.60;59.60
3770;DHT22;1900;48.890;9.190;2022-12-11T11:04:57;5.60;59.50
3770;DHT22;1900;48.890;9.190;2022-12-11T11:07:30;5.50;59.30
3770;DHT22;1900;48.890;9.190;2022-12-11T11:12:41;5.50;59.20
3770;DHT22;1900;48.890;9.190;2022-12-11T11:15:18;5.50;59.20
3770;DHT22;1900;48.890;9.190;2022-12-11T11:17:53;5.50;59.10
3770;DHT22;1900;48.890;9.190;2022-12-11T11:20:22;5.40;59.00
3770;DHT22;1900;48.890;9.190;2022-12-11T11:23:00;5.40;59.00
3770;DHT22;1900;48.890;9.190;2022-12-11T11:25:28;5.40;59.10
3770;DHT22;1900;48.890;9.190;2022-12-11T11:28:22;5.40;59.30
3770;DHT22;1900;48.890;9.190;2022-12-11T11:31:00;5.40;59.40
3770;DHT22;1900;48.890;9.190;2022-12-11T11:33:27;5.50;59.60
3770;DHT22;1900;48.890;9.190;2022-12-11T11:36:02;5.50;59.50
3770;DHT22;1900;48.890;9.190;2022-12-11T11:38:41;5.50;59.30
3770;DHT22;1900;48.890;9.190;2022-12-11T11:41:19;5.50;59.40
3770;DHT22;1900;48.890;9.190;2022-12-11T11:43:52;5.50;59.50
3770;DHT22;1900;48.890;9.190;2022-12-11T11:51:40;5.50;59.50
3770;DHT22;1900;48.890;9.190;2022-12-11T11:54:34;5.50;59.50
3770;DHT22;1900;48.890;9.190;2022-12-11T11:57:11;5.60;59.70
3770;DHT22;1900;48.890;9.190;2022-12-11T12:00:00;5.60;59.80
3770;DHT22;1900;48.890;9.190;2022-12-11T12:02:39;5.70;60.00
3770;DHT22;1900;48.890;9.190;2022-12-11T12:05:08;5.70;60.00
3770;DHT22;1900;48.890;9.190;2022-12-11T12:07:47;5.70;59.90
3770;DHT22;1900;48.890;9.190;2022-12-11T12:10:46;5.70;60.00
3770;DHT22;1900;48.890;9.190;2022-12-11T12:18:57;5.80;60.00
3770;DHT22;1900;48.890;9.190;2022-12-11T12:21:34;5.80;60.00
3770;DHT22;1900;48.890;9.190;2022-12-11T12:40:29;5.90;60.00
3770;DHT22;1900;48.890;9.190;2022-12-11T12:48:25;5.90;59.90
3770;DHT22;1900;48.890;9.190;2022-12-11T12:50:51;5.90;59.80
3770;DHT22;1900;48.890;9.190;2022-12-11T12:53:20;5.90;59.50
3770;DHT22;1900;48.890;9.190;2022-12-11T12:55:52;5.90;59.50
3770;DHT22;1900;48.890;9.190;2022-12-11T13:01:19;5.90;59.80
3770;DHT22;1900;48.890;9.190;2022-12-11T13:03:54;5.90;59.60
3770;DHT22;1900;48.890;9.190;2022-12-11T13:06:44;5.90;59.60
3770;DHT22;1900;48.890;9.190;2022-12-11T13:09:23;5.90;59.60
3770;DHT22;1900;48.890;9.190;2022-12-11T13:11:52;5.90;59.80
3770;DHT22;1900;48.890;9.190;2022-12-11T13:16:51;5.90;60.20
3770;DHT22;1900;48.890;9.190;2022-12-11T13:19:27;6.00;60.20
3770;DHT22;1900;48.890;9.190;2022-12-11T13:29:48;6.00;60.00
3770;DHT22;1900;48.890;9.190;2022-12-11T13:35:04;6.10;60.20
3770;DHT22;1900;48.890;9.190;2022-12-11T13:37:33;6.10;60.20
3770;DHT22;1900;48.890;9.190;2022-12-11T13:40:04;6.10;59.70
3770;DHT22;1900;48.890;9.190;2022-12-11T13:42:36;6.10;59.40
3770;DHT22;1900;48.890;9.190;2022-12-11T13:45:14;6.00;59.20
3770;DHT22;1900;48.890;9.190;2022-12-11T13:47:42;6.00;59.30
3770;DHT22;1900;48.890;9.190;2022-12-11T13:50:28;5.90;59.40
3770;DHT22;1900;48.890;9.190;2022-12-11T13:52:57;5.90;59.50
3770;DHT22;1900;48.890;9.190;2022-12-11T13:55:30;5.90;59.80
3770;DHT22;1900;48.890;9.190;2022-12-11T13:57:57;6.00;60.00
3770;DHT22;1900;48.890;9.190;2022-12-11T14:00:25;6.00;60.00
3770;DHT22;1900;48.890;9.190;2022-12-11T14:02:53;6.00;60.00
3770;DHT22;1900;48.890;9.190;2022-12-11T14:05:20;6.00;60.00
3770;DHT22;1900;48.890;9.190;2022-12-11T14:07:49;6.00;60.00
3770;DHT22;1900;48.890;9.190;2022-12-11T14:10:25;6.00;59.90
3770;DHT22;1900;48.890;9.190;2022-12-11T14:15:20;6.10;60.00
3770;DHT22;1900;48.890;9.190;2022-12-11T14:17:46;6.10;60.00
3770;DHT22;1900;48.890;9.190;2022-12-11T14:20:18;6.10;60.10
3770;DHT22;1900;48.890;9.190;2022-12-11T14:22:44;6.10;60.20
3770;DHT22;1900;48.890;9.190;2022-12-11T14:25:22;6.10;60.20
3770;DHT22;1900;48.890;9.190;2022-12-11T14:27:54;6.20;60.40
3770;DHT22;1900;48.890;9.190;2022-12-11T14:30:22;6.20;60.40
3770;DHT22;1900;48.890;9.190;2022-12-11T14:32:49;6.20;60.40
3770;DHT22;1900;48.890;9.190;2022-12-11T14:35:37;6.20;60.40
3770;DHT22;1900;48.890;9.190;2022-12-11T14:38:52;6.30;60.50
3770;DHT22;1900;48.890;9.190;2022-12-11T14:41:05;6.30;60.40
3770;DHT22;1900;48.890;9.190;2022-12-11T14:43:47;6.30;60.20
3770;DHT22;1900;48.890;9.190;2022-12-11T14:46:17;6.30;60.00
3770;DHT22;1900;48.890;9.190;2022-12-11T14:48:54;6.30;60.10
3770;DHT22;1900;48.890;9.190;2022-12-11T14:51:22;6.20;60.10
3770;DHT22;1900;48.890;9.190;2022-12-11T14:53:59;6.30;60.20
3770;DHT22;1900;48.890;9.190;2022-12-11T14:56:27;6.30;60.30
3770;DHT22;1900;48.890;9.190;2022-12-11T14:58:59;6.30;60.30
3770;DHT22;1900;48.890;9.190;2022-12-11T15:01:34;6.30;60.30
3770;DHT22;1900;48.890;9.190;2022-12-11T15:04:13;6.30;60.30
3770;DHT22;1900;48.890;9.190;2022-12-11T15:06:46;6.30;60.30
3770;DHT22;1900;48.890;9.190;2022-12-11T15:09:19;6.30;60.20
3770;DHT22;1900;48.890;9.190;2022-12-11T15:11:46;6.30;60.20
3770;DHT22;1900;48.890;9.190;2022-12-11T15:14:15;6.30;60.20
3770;DHT22;1900;48.890;9.190;2022-12-11T15:16:42;6.30;60.20
3770;DHT22;1900;48.890;9.190;2022-12-11T15:19:22;6.30;60.00
3770;DHT22;1900;48.890;9.190;2022-12-11T15:21:49;6.30;60.00
3770;DHT22;1900;48.890;9.190;2022-12-11T15:24:39;6.30;60.00
3770;DHT22;1900;48.890;9.190;2022-12-11T15:27:22;6.30;60.00
3770;DHT22;1900;48.890;9.190;2022-12-11T15:29:48;6.30;59.90
3770;DHT22;1900;48.890;9.190;2022-12-11T15:32:17;6.20;59.70
3770;DHT22;1900;48.890;9.190;2022-12-11T15:34:53;6.20;59.80
3770;DHT22;1900;48.890;9.190;2022-12-11T15:37:31;6.20;59.90
3770;DHT22;1900;48.890;9.190;2022-12-11T15:39:59;6.20;59.90
3770;DHT22;1900;48.890;9.190;2022-12-11T15:42:31;6.20;60.50
3770;DHT22;1900;48.890;9.190;2022-12-11T15:44:59;6.20;59.90
3770;DHT22;1900;48.890;9.190;2022-12-11T15:47:27;6.20;59.90
3770;DHT22;1900;48.890;9.190;2022-12-11T15:49:59;6.20;59.90
3770;DHT22;1900;48.890;9.190;2022-12-11T15:52:26;6.20;59.90
3770;DHT22;1900;48.890;9.190;2022-12-11T15:54:52;6.20;59.90
3770;DHT22;1900;48.890;9.190;2022-12-11T15:57:20;6.20;59.90
3770;DHT22;1900;48.890;9.190;2022-12-11T15:59:49;6.20;59.80
3770;DHT22;1900;48.890;9.190;2022-12-11T16:02:16;6.20;59.80
3770;DHT22;1900;48.890;9.190;2022-12-11T16:04:42;6.10;59.70
3770;DHT22;1900;48.890;9.190;2022-12-11T16:07:22;6.10;59.70
3770;DHT22;1900;48.890;9.190;2022-12-11T16:09:49;6.10;59.70
3770;DHT22;1900;48.890;9.190;2022-12-11T16:12:15;6.10;59.70
3770;DHT22;1900;48.890;9.190;2022-12-11T16:14:42;6.10;59.60
3770;DHT22;1900;48.890;9.190;2022-12-11T16:17:09;6.10;59.50
3770;DHT22;1900;48.890;9.190;2022-12-11T16:19:36;6.00;59.40
3770;DHT22;1900;48.890;9.190;2022-12-11T16:22:02;6.00;59.50
3770;DHT22;1900;48.890;9.190;2022-12-11T16:24:31;6.00;59.50
3770;DHT22;1900;48.890;9.190;2022-12-11T16:26:57;6.00;59.60
3770;DHT22;1900;48.890;9.190;2022-12-11T16:29:25;6.00;59.60
3770;DHT22;1900;48.890;9.190;2022-12-11T16:31:50;6.00;59.60
3770;DHT22;1900;48.890;9.190;2022-12-11T16:34:16;6.00;59.60
3770;DHT22;1900;48.890;9.190;2022-12-11T16:36:45;5.90;59.50
3770;DHT22;1900;48.890;9.190;2022-12-11T16:39:11;5.90;59.50
3770;DHT22;1900;48.890;9.190;2022-12-11T16:41:37;5.90;59.50
3770;DHT22;1900;48.890;9.190;2022-12-11T16:44:05;5.90;59.50
3770;DHT22;1900;48.890;9.190;2022-12-11T16:46:31;5.90;59.40
3770;DHT22;1900;48.890;9.190;2022-12-11T16:48:57;5.90;59.40
3770;DHT22;1900;48.890;9.190;2022-12-11T16:51:22;5.90;59.40
3770;DHT22;1900;48.890;9.190;2022-12-11T16:53:48;5.90;59.40
3770;DHT22;1900;48.890;9.190;2022-12-11T16:56:14;5.90;59.50
3770;DHT22;1900;48.890;9.190;2022-12-11T16:58:42;5.80;59.40
3770;DHT22;1900;48.890;9.190;2022-12-11T17:01:12;5.80;59.50
3770;DHT22;1900;48.890;9.190;2022-12-11T17:03:39;5.80;59.50
3770;DHT22;1900;48.890;9.190;2022-12-11T17:06:12;5.80;59.40
3770;DHT22;1900;48.890;9.190;2022-12-11T17:08:39;5.80;59.50
3770;DHT22;1900;48.890;9.190;2022-12-11T17:11:12;5.80;59.40
3770;DHT22;1900;48.890;9.190;2022-12-11T17:13:41;5.80;59.30
3770;DHT22;1900;48.890;9.190;2022-12-11T17:16:10;5.80;59.20
3770;DHT22;1900;48.890;9.190;2022-12-11T17:18:36;5.70;59.10
3770;DHT22;1900;48.890;9.190;2022-12-11T17:21:12;5.70;59.20
3770;DHT22;1900;48.890;9.190;2022-12-11T17:23:38;5.70;59.80
3770;DHT22;1900;48.890;9.190;2022-12-11T17:26:05;5.70;59.20
3770;DHT22;1900;48.890;9.190;2022-12-11T17:28:34;5.70;59.10
3770;DHT22;1900;48.890;9.190;2022-12-11T17:31:06;5.70;59.20
3770;DHT22;1900;48.890;9.190;2022-12-11T17:33:32;5.60;59.10
3770;DHT22;1900;48.890;9.190;2022-12-11T17:35:59;5.60;59.20
3770;DHT22;1900;48.890;9.190;2022-12-11T17:38:25;5.70;59.30
3770;DHT22;1900;48.890;9.190;2022-12-11T17:40:51;5.60;59.30
3770;DHT22;1900;48.890;9.190;2022-12-11T17:43:17;5.60;59.10
3770;DHT22;1900;48.890;9.190;2022-12-11T17:45:48;5.60;58.80
3770;DHT22;1900;48.890;9.190;2022-12-11T17:48:19;5.50;58.70
3770;DHT22;1900;48.890;9.190;2022-12-11T17:50:47;5.50;58.80
3770;DHT22;1900;48.890;9.190;2022-12-11T17:53:15;5.50;58.90
3770;DHT22;1900;48.890;9.190;2022-12-11T17:55:44;5.50;58.90
3770;DHT22;1900;48.890;9.190;2022-12-11T18:00:38;5.40;58.80
3770;DHT22;1900;48.890;9.190;2022-12-11T18:03:04;5.40;58.80
3770;DHT22;1900;48.890;9.190;2022-12-11T18:05:30;5.40;58.80
3770;DHT22;1900;48.890;9.190;2022-12-11T18:07:56;5.40;58.70
3770;DHT22;1900;48.890;9.190;2022-12-11T18:10:22;5.30;58.60
3770;DHT22;1900;48.890;9.190;2022-12-11T18:12:47;5.30;58.50
3770;DHT22;1900;48.890;9.190;2022-12-11T18:15:13;5.20;58.50
3770;DHT22;1900;48.890;9.190;2022-12-11T18:17:40;5.20;58.60
3770;DHT22;1900;48.890;9.190;2022-12-11T18:20:06;5.20;58.70
3770;DHT22;1900;48.890;9.190;2022-12-11T18:22:32;5.20;58.80
3770;DHT22;1900;48.890;9.190;2022-12-11T18:24:58;5.20;58.90
3770;DHT22;1900;48.890;9.190;2022-12-11T18:27:24;5.20;58.80